Time;durP1;ratioP1;P1;durP2;ratioP2;P2;SDS_P1;SDS_P2;PMS_P1;PMS_P2;Temp;Humidity;BMP_temperature;BMP_pressure;BME280_temperature;BME280_humidity;BME280_pressure;Samples;Min_cycle;Max_cycle;Signal;HPM_P1;HPM_P2
2023/09/08 00:01:04;;;;;;;11.68;7.47;;;;;;;20.51;74.83;101538.13;5069585;28;20414;-64
2023/09/08 00:03:29;;;;;;;12.10;7.70;;;;;;;20.46;74.82;101539.53;5089472;28;20054;-64
2023/09/08 00:05:57;;;;;;;8.05;7.18;;;;;;;20.47;75.22;101538.53;5085455;28;20029;-64
2023/09/08 00:08:24;;;;;;;9.27;7.75;;;;;;;20.31;75.46;101529.19;5071019;28;20039;-64
2023/09/08 00:10:52;;;;;;;7.97;7.25;;;;;;;20.26;75.50;101534.16;5070913;28;20027;-64
2023/09/08 00:13:17;;;;;;;7.68;6.97;;;;;;;20.34;75.24;101534.28;5069494;28;20044;-64
2023/09/08 00:15:42;;;;;;;14.07;7.63;;;;;;;20.29;75.79;101533.00;5069604;28;20024;-64
2023/09/08 00:18:08;;;;;;;9.43;7.63;;;;;;;20.30;75.67;101534.75;5058930;28;20437;-64
2023/09/08 00:20:34;;;;;;;8.45;7.68;;;;;;;20.15;76.59;101542.41;5066467;28;20035;-63
2023/09/08 00:22:59;;;;;;;9.27;7.35;;;;;;;20.17;76.17;101537.72;5065495;28;20118;-64
2023/09/08 00:25:25;;;;;;;10.57;7.72;;;;;;;20.18;75.72;101542.13;5070453;28;20475;-64
2023/09/08 00:27:50;;;;;;;8.18;7.35;;;;;;;20.27;76.31;101540.44;5071183;28;20025;-64
2023/09/08 00:30:16;;;;;;;12.80;7.03;;;;;;;20.12;76.49;101548.97;5099520;28;20036;-64
2023/09/08 00:32:41;;;;;;;10.82;7.75;;;;;;;20.11;76.60;101539.13;5069005;28;20043;-64
2023/09/08 00:35:08;;;;;;;11.20;8.25;;;;;;;20.13;76.69;101537.16;5096502;28;20039;-64
2023/09/08 00:37:33;;;;;;;9.18;8.27;;;;;;;20.04;76.94;101532.59;5070215;28;20077;-64
2023/09/08 00:39:58;;;;;;;11.18;8.00;;;;;;;20.11;76.67;101539.13;5070428;28;20107;-64
2023/09/08 00:42:26;;;;;;;11.38;7.40;;;;;;;20.14;76.56;101541.53;5070164;28;20027;-64
2023/09/08 00:44:52;;;;;;;9.00;8.02;;;;;;;20.15;76.25;101539.72;5069458;28;20029;-64
2023/09/08 00:47:17;;;;;;;10.90;7.70;;;;;;;20.02;76.47;101542.69;5061238;28;20474;-64
2023/09/08 00:49:43;;;;;;;9.00;7.50;;;;;;;20.00;76.63;101538.41;5070640;28;20025;-64
2023/09/08 00:52:08;;;;;;;9.38;8.38;;;;;;;19.81;77.15;101532.00;5057873;28;20029;-64
2023/09/08 00:54:34;;;;;;;12.52;7.85;;;;;;;19.97;77.05;101528.75;5061796;28;20437;-64
2023/09/08 00:57:02;;;;;;;13.00;7.60;;;;;;;20.09;76.22;101537.56;5073264;28;20029;-64
2023/09/08 00:59:27;;;;;;;11.70;8.00;;;;;;;20.06;76.49;101532.44;5077558;28;20082;-64
2023/09/08 01:01:53;;;;;;;8.70;7.82;;;;;;;19.97;76.86;101539.53;5071240;28;20036;-64
2023/09/08 01:04:20;;;;;;;9.60;8.10;;;;;;;20.03;76.52;101533.59;5073891;28;20028;-64
2023/09/08 01:06:46;;;;;;;9.05;8.25;;;;;;;19.91;77.06;101532.88;5057620;28;20029;-64
2023/09/08 01:09:13;;;;;;;8.48;7.68;;;;;;;19.90;76.81;101528.47;5094422;27;20024;-64
2023/09/08 01:11:39;;;;;;;10.45;7.97;;;;;;;19.85;77.15;101535.28;5088732;28;20052;-64
2023/09/08 01:14:04;;;;;;;8.73;7.82;;;;;;;19.94;76.91;101535.31;5073563;28;20493;-64
2023/09/08 01:16:30;;;;;;;9.27;7.70;;;;;;;19.85;77.59;101541.53;5073653;28;20020;-64
2023/09/08 01:18:57;;;;;;;10.13;8.43;;;;;;;19.79;77.19;101525.88;5073762;28;20036;-64
2023/09/08 01:21:55;;;;;;;10.63;7.88;;;;;;;19.79;77.82;101533.13;5074110;28;20115;-64
2023/09/08 01:24:56;;;;;;;13.10;8.30;;;;;;;19.80;77.88;101533.00;5038823;28;20094;-64
2023/09/08 01:27:27;;;;;;;9.23;8.32;;;;;;;19.73;77.54;101540.78;5064026;28;20063;-64
2023/09/08 01:29:54;;;;;;;10.70;8.63;;;;;;;19.61;78.69;101544.56;5074576;28;20114;-64
2023/09/08 01:32:20;;;;;;;11.32;8.73;;;;;;;19.56;78.58;101540.59;5053505;28;20032;-64
2023/09/08 01:34:46;;;;;;;9.65;8.63;;;;;;;19.57;78.68;101545.84;5085250;28;20021;-64
2023/09/08 01:37:11;;;;;;;9.95;8.65;;;;;;;19.74;78.13;101547.91;5097934;28;20048;-64
2023/09/08 01:39:36;;;;;;;9.93;8.93;;;;;;;19.75;78.29;101537.97;5073175;28;20111;-64
2023/09/08 01:42:03;;;;;;;9.20;8.30;;;;;;;19.65;78.43;101547.91;5073727;28;20111;-64
2023/09/08 01:44:28;;;;;;;11.05;8.85;;;;;;;19.59;78.72;101538.47;5072720;28;20025;-64
2023/09/08 01:46:56;;;;;;;9.38;8.38;;;;;;;19.66;78.38;101542.34;5104981;28;20090;-64
2023/09/08 01:49:25;;;;;;;8.57;7.73;;;;;;;19.52;79.22;101540.84;5058646;28;20025;-63
2023/09/08 01:51:54;;;;;;;10.52;8.07;;;;;;;19.50;79.29;101526.69;5074394;28;20108;-64
2023/09/08 01:54:19;;;;;;;8.75;7.90;;;;;;;19.34;79.68;101536.28;5087692;28;20060;-64
2023/09/08 01:56:44;;;;;;;9.15;8.25;;;;;;;19.56;79.34;101535.19;5072350;28;20051;-64
2023/09/08 01:59:12;;;;;;;14.55;8.68;;;;;;;19.40;79.59;101527.63;5087185;28;20120;-64
2023/09/08 02:01:40;;;;;;;10.23;9.07;;;;;;;19.35;80.10;101533.41;5071077;28;20013;-64
2023/09/08 02:04:08;;;;;;;8.57;7.78;;;;;;;19.27;80.17;101531.44;5102091;27;20111;-64
2023/09/08 02:06:33;;;;;;;11.65;8.23;;;;;;;19.34;79.96;101523.63;5070884;28;20055;-63
2023/09/08 02:08:59;;;;;;;9.63;8.73;;;;;;;19.31;79.99;101523.91;5064172;28;20070;-64
2023/09/08 02:11:24;;;;;;;10.30;9.20;;;;;;;19.21;80.72;101528.44;5070195;28;20024;-64
2023/09/08 02:13:49;;;;;;;9.55;8.55;;;;;;;19.18;80.92;101532.25;5072699;28;20025;-64
2023/09/08 02:16:15;;;;;;;11.00;8.90;;;;;;;19.17;80.67;101522.44;5062625;28;20040;-64
2023/09/08 02:18:42;;;;;;;10.07;8.90;;;;;;;19.09;81.08;101530.38;5058770;28;20031;-64
2023/09/08 02:21:07;;;;;;;10.07;8.55;;;;;;;19.13;80.92;101531.78;5071401;28;20107;-64
2023/09/08 02:23:32;;;;;;;9.70;8.75;;;;;;;19.00;81.69;101529.34;5104352;28;20063;-64
2023/09/08 02:25:58;;;;;;;10.93;8.25;;;;;;;19.12;81.22;101526.53;5071893;28;20029;-64
2023/09/08 02:28:23;;;;;;;12.68;8.43;;;;;;;19.12;81.62;101526.53;5060788;28;20032;-64
2023/09/08 02:30:48;;;;;;;10.27;9.23;;;;;;;18.83;82.63;101517.31;5071830;28;20080;-64
2023/09/08 02:33:14;;;;;;;13.80;8.43;;;;;;;19.02;82.08;101513.00;5071341;28;20039;-64
2023/09/08 02:35:39;;;;;;;14.98;8.73;;;;;;;19.13;81.66;101517.47;5086080;28;20048;-63
2023/09/08 02:38:05;;;;;;;13.27;8.85;;;;;;;18.84;81.91;101502.84;5071094;28;20042;-63
2023/09/08 02:40:30;;;;;;;10.00;8.80;;;;;;;18.90;82.27;101516.78;5061460;28;20527;-63
2023/09/08 02:42:56;;;;;;;9.60;8.30;;;;;;;18.84;82.33;101519.03;5066074;28;20020;-63
2023/09/08 02:45:21;;;;;;;11.27;8.85;;;;;;;18.81;82.52;101505.81;5071951;28;20024;-63
2023/09/08 02:47:46;;;;;;;14.25;8.98;;;;;;;18.71;82.63;101506.75;5071483;28;20037;-63
2023/09/08 02:50:12;;;;;;;11.98;8.50;;;;;;;18.76;82.91;101517.97;5103378;28;20115;-63
2023/09/08 02:52:37;;;;;;;9.20;8.30;;;;;;;18.76;81.98;101518.84;5072083;28;20402;-63
2023/09/08 02:55:03;;;;;;;10.20;8.38;;;;;;;18.61;83.40;101514.75;5061276;28;20112;-63
2023/09/08 02:57:28;;;;;;;9.25;8.32;;;;;;;18.76;83.37;101517.97;5052168;28;20123;-63
2023/09/08 02:59:56;;;;;;;11.95;9.10;;;;;;;18.54;83.77;101497.41;5067940;28;20361;-63
2023/09/08 03:02:23;;;;;;;9.40;8.40;;;;;;;18.62;83.77;101516.47;5055161;28;20066;-63
2023/09/08 03:04:48;;;;;;;10.13;8.75;;;;;;;18.58;83.84;101515.88;5067058;28;20086;-63
2023/09/08 03:07:13;;;;;;;11.50;9.18;;;;;;;18.71;83.67;101515.69;5090292;28;20025;-63
2023/09/08 03:09:39;;;;;;;11.60;9.30;;;;;;;18.80;83.35;101524.84;5071374;28;20440;-63
2023/09/08 03:12:04;;;;;;;10.70;8.40;;;;;;;18.72;83.72;101516.53;5069259;28;20073;-63
2023/09/08 03:14:30;;;;;;;9.65;8.70;;;;;;;18.73;84.04;101510.13;5083313;28;20403;-63
2023/09/08 03:16:55;;;;;;;11.68;8.85;;;;;;;18.60;84.69;101518.44;5068263;28;20029;-63
2023/09/08 03:19:20;;;;;;;10.95;8.90;;;;;;;18.54;84.79;101518.97;5070305;28;20536;-63
2023/09/08 03:21:48;;;;;;;10.60;9.20;;;;;;;18.55;84.86;101516.13;5085657;28;20029;-63
2023/09/08 03:24:13;;;;;;;11.82;9.48;;;;;;;18.49;85.35;101526.59;5070893;28;20056;-63
2023/09/08 03:26:40;;;;;;;10.35;9.23;;;;;;;18.55;84.92;101520.66;5071209;28;20070;-63
2023/09/08 03:29:06;;;;;;;10.23;9.23;;;;;;;18.49;85.42;101522.03;5070797;28;20040;-63
2023/09/08 03:31:32;;;;;;;11.93;9.65;;;;;;;18.45;85.28;101511.69;5071258;28;20025;-63
2023/09/08 03:33:57;;;;;;;10.43;9.32;;;;;;;18.48;85.55;101516.81;5071344;28;20073;-63
2023/09/08 03:36:23;;;;;;;10.35;9.25;;;;;;;18.43;85.72;101509.09;5070237;28;20115;-63
2023/09/08 03:38:48;;;;;;;10.88;9.00;;;;;;;18.42;85.61;101510.09;5071352;28;20028;-63
2023/09/08 03:41:14;;;;;;;12.15;9.07;;;;;;;18.44;85.50;101508.09;5069754;28;20487;-63
2023/09/08 03:43:40;;;;;;;10.98;9.82;;;;;;;18.38;85.84;101504.13;5103684;28;20597;-63
2023/09/08 03:46:07;;;;;;;10.23;9.32;;;;;;;18.41;85.98;101502.13;5071793;28;20099;-63
2023/09/08 03:48:33;;;;;;;9.93;8.93;;;;;;;18.34;85.90;101504.50;5070997;28;20025;-63
2023/09/08 03:50:58;;;;;;;9.75;8.75;;;;;;;18.42;85.93;101515.50;5071029;28;20024;-63
2023/09/08 03:53:24;;;;;;;13.40;9.82;;;;;;;18.24;86.26;101515.22;5069883;28;20025;-63
2023/09/08 03:55:49;;;;;;;10.75;9.85;;;;;;;18.29;86.39;101509.44;5071460;28;20096;-63
2023/09/08 03:58:15;;;;;;;11.32;9.50;;;;;;;18.35;85.84;101506.22;5071407;28;20032;-63
2023/09/08 04:00:41;;;;;;;12.20;9.35;;;;;;;18.31;86.05;101505.63;5085125;28;20138;-63
2023/09/08 04:03:07;;;;;;;10.02;9.13;;;;;;;18.10;87.32;101510.16;5070977;28;20111;-63
2023/09/08 04:05:33;;;;;;;10.52;9.60;;;;;;;18.15;86.96;101502.53;5066091;28;20139;-63
2023/09/08 04:07:58;;;;;;;12.25;9.75;;;;;;;18.04;87.40;101502.59;5102726;28;20111;-63
2023/09/08 04:10:23;;;;;;;12.10;9.43;;;;;;;18.01;87.20;101490.25;5068629;28;20035;-63
2023/09/08 04:12:49;;;;;;;11.43;10.23;;;;;;;18.04;87.53;101505.28;5055951;28;20017;-63
2023/09/08 04:15:14;;;;;;;12.77;9.95;;;;;;;17.92;88.06;101501.78;5064924;28;20386;-63
2023/09/08 04:17:40;;;;;;;11.73;10.52;;;;;;;18.09;87.27;101500.38;5075028;28;20012;-63
2023/09/08 04:20:06;;;;;;;12.98;10.43;;;;;;;18.14;87.29;101501.66;5068063;28;20486;-63
2023/09/08 04:22:32;;;;;;;11.85;9.98;;;;;;;18.02;87.74;101508.09;5070496;28;20368;-63
2023/09/08 04:24:58;;;;;;;10.55;9.35;;;;;;;18.07;87.36;101499.63;5070593;28;20021;-63
2023/09/08 04:27:23;;;;;;;14.18;10.30;;;;;;;18.00;88.01;101496.63;5070446;28;20063;-63
2023/09/08 04:29:49;;;;;;;12.35;10.50;;;;;;;18.03;87.92;101499.06;5057660;28;20025;-63
2023/09/08 04:32:14;;;;;;;11.27;10.18;;;;;;;17.88;88.42;101485.03;5074319;28;20035;-63
2023/09/08 04:34:41;;;;;;;11.90;10.65;;;;;;;17.95;88.12;101495.28;5073758;28;20024;-63
2023/09/08 04:37:09;;;;;;;12.27;10.85;;;;;;;17.85;88.58;101500.56;5078626;28;20061;-63
2023/09/08 04:39:37;;;;;;;11.85;10.20;;;;;;;17.76;88.21;101486.00;5074155;28;20704;-63
2023/09/08 04:42:03;;;;;;;11.85;10.63;;;;;;;17.93;88.12;101484.63;5063530;28;20020;-63
2023/09/08 04:44:30;;;;;;;11.52;10.35;;;;;;;17.83;88.80;101497.19;5073770;28;20094;-63
2023/09/08 04:46:56;;;;;;;15.25;11.30;;;;;;;17.86;88.61;101497.75;5073990;28;20028;-63
2023/09/08 04:49:24;;;;;;;14.93;9.88;;;;;;;17.97;88.07;101494.19;5074334;28;20393;-63
2023/09/08 04:51:51;;;;;;;13.00;10.93;;;;;;;17.85;88.64;101495.19;5073330;28;20036;-64
2023/09/08 04:54:19;;;;;;;12.65;10.98;;;;;;;17.86;88.71;101494.22;5091115;28;20070;-63
2023/09/08 04:56:45;;;;;;;11.32;10.32;;;;;;;17.97;88.32;101506.75;5094191;28;20035;-63
2023/09/08 04:59:10;;;;;;;15.18;10.13;;;;;;;17.86;88.96;101496.91;5093051;28;20039;-63
2023/09/08 05:01:37;;;;;;;16.25;11.23;;;;;;;17.88;88.91;101498.50;5060874;28;20380;-64
2023/09/08 05:04:03;;;;;;;13.80;10.10;;;;;;;17.89;88.95;101504.72;5074139;28;20384;-63
2023/09/08 05:06:29;;;;;;;15.80;11.57;;;;;;;17.71;89.35;101501.72;5088025;28;20036;-63
2023/09/08 05:08:54;;;;;;;15.70;11.65;;;;;;;17.63;89.41;101496.09;5073395;28;20654;-63
2023/09/08 05:11:19;;;;;;;15.10;11.00;;;;;;;17.80;89.86;101511.72;5075302;28;20086;-63
2023/09/08 05:13:48;;;;;;;15.73;11.30;;;;;;;17.65;90.15;101510.28;5073691;28;20059;-63
2023/09/08 05:16:14;;;;;;;15.80;12.07;;;;;;;17.78;89.82;101508.31;5073675;28;20028;-63
2023/09/08 05:18:40;;;;;;;13.48;12.02;;;;;;;17.82;89.76;101509.75;5089470;28;20434;-63
2023/09/08 05:21:06;;;;;;;20.55;11.68;;;;;;;17.67;90.42;101508.31;5073177;28;20052;-63
2023/09/08 05:23:32;;;;;;;14.57;11.40;;;;;;;17.87;89.81;101512.06;5077480;28;20069;-63
2023/09/08 05:25:58;;;;;;;18.50;11.27;;;;;;;17.75;90.09;101507.69;5081128;28;20027;-64
2023/09/08 05:28:23;;;;;;;20.45;12.30;;;;;;;17.77;90.22;101506.56;5072965;28;20024;-63
2023/09/08 05:30:52;;;;;;;17.45;11.02;;;;;;;17.72;90.58;101503.41;5105557;28;20044;-63
2023/09/08 05:33:18;;;;;;;13.77;11.07;;;;;;;17.69;91.16;101504.50;5073173;28;20387;-63
2023/09/08 05:35:45;;;;;;;14.98;11.82;;;;;;;17.64;90.93;101504.03;5100554;28;20040;-63
2023/09/08 05:38:13;;;;;;;17.17;11.60;;;;;;;17.73;91.47;101517.69;5063378;28;20084;-63
2023/09/08 05:40:38;;;;;;;16.13;11.75;;;;;;;17.76;91.35;101507.53;5071886;28;20426;-63
2023/09/08 05:43:04;;;;;;;17.45;11.65;;;;;;;17.80;91.18;101517.13;5092969;27;20036;-63
2023/09/08 05:45:32;;;;;;;19.42;11.65;;;;;;;17.78;91.15;101512.84;5070677;28;20020;-63
2023/09/08 05:47:57;;;;;;;13.63;10.85;;;;;;;17.88;91.18;101521.84;5069059;28;20060;-63
2023/09/08 05:50:23;;;;;;;14.95;11.73;;;;;;;18.00;90.81;101530.72;5071859;28;20036;-63
2023/09/08 05:52:48;;;;;;;14.48;11.55;;;;;;;17.87;91.71;101529.06;5071952;28;20032;-63
2023/09/08 05:55:13;;;;;;;18.52;12.30;;;;;;;17.99;89.46;101516.41;5072564;28;20025;-63
2023/09/08 05:57:40;;;;;;;14.43;11.65;;;;;;;18.02;90.86;101518.84;5072388;28;20082;-63
2023/09/08 06:00:06;;;;;;;14.52;12.32;;;;;;;18.02;91.02;101528.78;5071994;28;20017;-63
2023/09/08 06:02:32;;;;;;;13.70;12.10;;;;;;;18.06;91.05;101523.03;5072989;28;20028;-63
2023/09/08 06:05:00;;;;;;;15.60;11.50;;;;;;;18.13;91.02;101524.19;5070697;28;20467;-63
2023/09/08 06:07:25;;;;;;;17.60;13.35;;;;;;;18.19;89.30;101522.81;5071670;28;20115;-63
2023/09/08 06:09:53;;;;;;;14.30;11.65;;;;;;;18.20;90.65;101529.06;5072853;28;20112;-63
2023/09/08 06:12:18;;;;;;;18.92;12.50;;;;;;;18.33;89.30;101527.06;5072430;28;20029;-63
2023/09/08 06:14:43;;;;;;;16.33;12.27;;;;;;;18.29;90.64;101522.91;5071457;28;20020;-63
2023/09/08 06:17:10;;;;;;;15.65;11.88;;;;;;;18.41;90.60;101531.78;5070274;28;20403;-63
2023/09/08 06:19:35;;;;;;;17.20;11.52;;;;;;;18.35;91.16;101539.41;5070909;28;20107;-63
2023/09/08 06:22:01;;;;;;;13.85;11.73;;;;;;;18.47;90.41;101540.19;5069105;28;20024;-63
2023/09/08 06:24:26;;;;;;;18.77;12.82;;;;;;;18.47;90.37;101544.72;5071303;28;20028;-63
2023/09/08 06:26:52;;;;;;;16.88;12.63;;;;;;;18.45;90.56;101536.78;5104976;28;20028;-64
2023/09/08 06:29:17;;;;;;;15.43;12.00;;;;;;;18.51;90.47;101530.88;5069695;28;20375;-64
2023/09/08 06:31:43;;;;;;;18.48;12.63;;;;;;;18.71;89.43;101539.94;5071430;28;20020;-64
2023/09/08 06:34:08;;;;;;;18.23;11.82;;;;;;;18.74;90.29;101531.59;5069865;28;20037;-65
2023/09/08 06:36:33;;;;;;;12.77;11.48;;;;;;;18.78;90.28;101530.34;5071382;28;20182;-65
2023/09/08 06:38:59;;;;;;;14.70;11.80;;;;;;;18.87;88.60;101528.69;5071136;28;20032;-65
2023/09/08 06:41:27;;;;;;;16.27;11.65;;;;;;;18.83;89.87;101538.03;5071766;28;20021;-65
2023/09/08 06:43:52;;;;;;;13.57;11.45;;;;;;;18.92;89.90;101542.63;5071263;28;20543;-65
2023/09/08 06:46:18;;;;;;;15.52;12.82;;;;;;;19.12;85.88;101543.59;5071349;28;20028;-64
2023/09/08 06:48:45;;;;;;;15.15;12.52;;;;;;;19.18;86.64;101537.66;5071704;28;20111;-64
2023/09/08 06:51:11;;;;;;;13.90;12.30;;;;;;;19.18;88.69;101543.03;5071815;28;20021;-64
2023/09/08 06:53:36;;;;;;;12.50;11.15;;;;;;;19.30;88.52;101546.50;5069453;28;20124;-65
2023/09/08 06:56:02;;;;;;;15.85;12.88;;;;;;;19.49;85.64;101543.84;5069977;28;20039;-64
2023/09/08 06:58:27;;;;;;;15.23;12.55;;;;;;;19.60;83.87;101552.81;5070120;28;20107;-64
2023/09/08 07:00:56;;;;;;;12.93;11.50;;;;;;;19.58;86.46;101552.09;5071058;28;20463;-65
2023/09/08 07:03:22;;;;;;;13.45;12.07;;;;;;;19.53;86.55;101549.84;5087327;28;20119;-65
2023/09/08 07:05:49;;;;;;;17.38;12.63;;;;;;;19.57;87.34;101545.84;5070889;28;20471;-65
2023/09/08 07:08:14;;;;;;;13.20;11.88;;;;;;;19.61;88.89;101554.53;5070899;28;20086;-65
2023/09/08 07:10:39;;;;;;;12.23;11.13;;;;;;;19.61;88.82;101543.72;5070571;28;20030;-65
2023/09/08 07:13:05;;;;;;;14.80;12.07;;;;;;;19.78;85.71;101561.13;5052624;28;20119;-64
2023/09/08 07:15:30;;;;;;;13.63;11.95;;;;;;;19.88;84.66;101554.78;5069332;28;20020;-65
2023/09/08 07:17:55;;;;;;;13.73;12.30;;;;;;;19.77;88.10;101545.94;5070938;28;20056;-65
2023/09/08 07:20:21;;;;;;;15.30;12.07;;;;;;;19.89;87.06;101534.88;5070367;28;20360;-65
2023/09/08 07:22:49;;;;;;;15.65;12.60;;;;;;;19.96;85.98;101546.78;5086323;28;20048;-65
2023/09/08 07:25:14;;;;;;;14.68;11.60;;;;;;;20.04;85.36;101545.25;5070755;28;20060;-65
2023/09/08 07:27:39;;;;;;;15.18;11.98;;;;;;;20.12;85.47;101554.34;5071447;28;20056;-65
2023/09/08 07:30:06;;;;;;;13.70;11.90;;;;;;;20.26;83.31;101541.41;5071482;28;20429;-64
2023/09/08 07:32:31;;;;;;;15.82;12.57;;;;;;;20.43;82.63;101562.31;5071329;28;20480;-65
2023/09/08 07:34:56;;;;;;;13.43;10.98;;;;;;;20.44;86.07;101558.59;5070639;28;20074;-65
2023/09/08 07:37:22;;;;;;;13.40;10.88;;;;;;;20.43;86.43;101557.75;5070952;28;20044;-65
2023/09/08 07:39:48;;;;;;;12.68;11.27;;;;;;;20.58;83.67;101560.88;5070732;28;20380;-65
2023/09/08 07:42:16;;;;;;;15.73;11.20;;;;;;;20.63;85.40;101555.06;5086277;28;20471;-65
2023/09/08 07:44:45;;;;;;;15.98;11.25;;;;;;;20.81;82.68;101552.47;5070701;28;20499;-66
2023/09/08 07:47:10;;;;;;;14.68;11.20;;;;;;;20.94;81.70;101550.31;5103648;28;20395;-64
2023/09/08 07:49:36;;;;;;;13.60;11.68;;;;;;;21.05;80.77;101558.22;5070319;28;20021;-66
2023/09/08 07:52:04;;;;;;;12.68;10.40;;;;;;;21.08;82.54;101557.06;5070891;28;20108;-65
2023/09/08 07:54:29;;;;;;;12.90;9.82;;;;;;;21.00;85.79;101552.41;5070496;28;20052;-65
2023/09/08 07:56:55;;;;;;;14.45;10.95;;;;;;;21.28;79.63;101555.13;5071025;28;20117;-65
2023/09/08 07:59:20;;;;;;;16.27;9.80;;;;;;;21.38;79.95;101547.84;5070901;28;20056;-64
2023/09/08 08:01:45;;;;;;;12.05;9.65;;;;;;;21.34;82.55;101546.41;5070912;28;20027;-64
2023/09/08 08:04:11;;;;;;;12.18;9.75;;;;;;;21.48;81.12;101548.66;5072002;28;20025;-64
2023/09/08 08:06:38;;;;;;;9.35;8.32;;;;;;;21.66;77.72;101550.56;5074489;28;20071;-65
2023/09/08 08:09:03;;;;;;;12.52;8.82;;;;;;;21.80;77.39;101557.31;5075219;28;20036;-65
2023/09/08 08:11:31;;;;;;;11.95;8.98;;;;;;;21.98;75.19;101552.75;5074981;28;20524;-65
2023/09/08 08:13:56;;;;;;;9.55;8.52;;;;;;;22.08;75.89;101558.09;5107678;28;20430;-65
2023/09/08 08:16:23;;;;;;;10.43;7.90;;;;;;;22.17;74.92;101541.78;5074730;28;20077;-65
2023/09/08 08:18:51;;;;;;;8.60;7.72;;;;;;;22.30;74.81;101543.28;5075156;28;20028;-65
2023/09/08 08:21:16;;;;;;;12.30;8.70;;;;;;;22.25;75.60;101546.44;5107079;28;20017;-64
2023/09/08 08:23:42;;;;;;;10.85;7.85;;;;;;;22.50;74.33;101558.34;5074589;28;20263;-65
2023/09/08 08:26:07;;;;;;;12.00;7.75;;;;;;;22.50;76.14;101560.19;5074607;28;20039;-65
2023/09/08 08:28:35;;;;;;;8.20;7.38;;;;;;;22.63;72.30;101566.91;5090360;28;20498;-65
2023/09/08 08:31:00;;;;;;;10.50;7.70;;;;;;;22.63;75.22;101560.66;5074627;28;20024;-64
2023/09/08 08:33:26;;;;;;;11.73;7.97;;;;;;;22.78;72.21;101561.75;5074349;28;20503;-65
2023/09/08 08:35:53;;;;;;;11.48;7.30;;;;;;;22.90;73.11;101563.19;5073251;28;20377;-65
2023/09/08 08:38:18;;;;;;;9.23;6.55;;;;;;;22.99;73.51;101563.28;5074061;28;20066;-65
2023/09/08 08:40:46;;;;;;;11.30;7.88;;;;;;;23.17;72.88;101558.63;5073928;28;20481;-65
2023/09/08 08:43:12;;;;;;;8.05;6.95;;;;;;;23.13;74.53;101566.25;5106843;28;20154;-65
2023/09/08 08:45:41;;;;;;;8.75;7.00;;;;;;;23.19;73.23;101569.34;5073735;28;20103;-65
2023/09/08 08:48:08;;;;;;;18.70;8.10;;;;;;;23.23;72.36;101560.69;5074110;28;20402;-65
2023/09/08 08:50:35;;;;;;;8.88;7.70;;;;;;;23.38;71.90;101562.78;5073174;28;20023;-65
2023/09/08 08:53:02;;;;;;;8.35;7.55;;;;;;;23.43;72.93;101565.88;5073910;28;20052;-65
2023/09/08 08:55:29;;;;;;;9.10;7.03;;;;;;;23.54;73.63;101560.16;5089458;28;20020;-65
2023/09/08 08:58:00;;;;;;;8.90;7.13;;;;;;;23.63;73.23;101555.59;5089492;28;20494;-65
2023/09/08 09:00:26;;;;;;;10.68;7.47;;;;;;;23.69;68.88;101563.94;5073774;28;20422;-65
2023/09/08 09:02:52;;;;;;;12.77;7.78;;;;;;;23.85;68.80;101562.31;5072529;28;20411;-65
2023/09/08 09:05:18;;;;;;;12.27;7.30;;;;;;;23.87;71.77;101552.13;5073503;28;20078;-65
2023/09/08 09:07:44;;;;;;;7.32;6.60;;;;;;;23.97;69.31;101556.41;5106577;28;20029;-65
2023/09/08 09:10:10;;;;;;;8.00;6.70;;;;;;;23.98;68.72;101560.81;5073967;28;20024;-65
2023/09/08 09:12:38;;;;;;;10.15;6.97;;;;;;;23.97;68.91;101558.25;5073754;28;20112;-65
2023/09/08 09:15:08;;;;;;;10.10;7.47;;;;;;;24.01;69.74;101546.88;5073778;28;20028;-65
2023/09/08 09:17:34;;;;;;;8.45;6.55;;;;;;;24.15;70.49;101561.69;5088452;28;20032;-65
2023/09/08 09:20:17;;;;;;;12.60;7.75;;;;;;;24.24;68.93;101557.97;5072377;28;20028;-65
2023/09/08 09:22:45;;;;;;;11.35;7.10;;;;;;;24.28;69.30;101557.63;5071520;28;20488;-65
2023/09/08 09:25:24;;;;;;;10.40;7.55;;;;;;;24.15;67.81;101537.22;5089214;28;20016;-65
2023/09/08 09:28:00;;;;;;;9.57;7.68;;;;;;;24.38;68.00;101553.69;5073375;28;20136;-65
2023/09/08 09:30:27;;;;;;;8.55;7.55;;;;;;;24.57;69.18;101549.81;5072053;28;20071;-60
2023/09/08 09:33:04;;;;;;;9.43;7.38;;;;;;;24.80;68.87;101552.69;5088080;28;20120;-59
2023/09/08 09:35:49;;;;;;;11.13;7.35;;;;;;;24.75;69.04;101554.22;5087880;28;20039;-59
2023/09/08 09:38:15;;;;;;;7.78;6.97;;;;;;;24.96;66.93;101549.06;5071944;28;20033;-60
2023/09/08 09:40:40;;;;;;;7.88;6.93;;;;;;;24.95;66.64;101551.97;5072519;28;20034;-59
2023/09/08 09:43:07;;;;;;;7.88;6.93;;;;;;;25.15;65.31;101550.59;5073194;28;20047;-58
2023/09/08 09:45:37;;;;;;;11.35;7.10;;;;;;;25.16;66.17;101546.84;5072734;28;20497;-60
2023/09/08 09:48:04;;;;;;;7.82;6.60;;;;;;;25.25;63.90;101547.66;5073627;28;20477;-60
2023/09/08 09:50:41;;;;;;;9.38;6.50;;;;;;;25.38;64.08;101556.09;5071868;28;20028;-60
2023/09/08 09:53:12;;;;;;;9.23;6.32;;;;;;;25.47;65.67;101544.16;5071254;28;20104;-60
2023/09/08 09:55:39;;;;;;;8.18;6.75;;;;;;;25.59;67.08;101555.50;5072568;28;20497;-59
2023/09/08 09:58:05;;;;;;;10.13;6.90;;;;;;;25.56;66.40;101550.38;5092912;27;20056;-60
2023/09/08 10:00:33;;;;;;;9.95;7.10;;;;;;;25.68;65.87;101557.16;5096191;27;20028;-60
2023/09/08 10:02:59;;;;;;;11.48;7.10;;;;;;;25.78;66.85;101551.47;5070306;28;20360;-60
2023/09/08 10:05:25;;;;;;;10.73;7.32;;;;;;;25.79;70.53;101550.44;5086105;28;20020;-58
2023/09/08 10:07:54;;;;;;;18.73;8.02;;;;;;;25.81;65.14;101551.97;5072273;28;20029;-58
2023/09/08 10:10:21;;;;;;;8.45;6.05;;;;;;;25.94;63.57;101556.00;5070580;28;20078;-58
2023/09/08 10:12:52;;;;;;;14.02;6.55;;;;;;;26.01;63.06;101546.94;5071463;28;20024;-59
2023/09/08 10:15:21;;;;;;;9.52;6.80;;;;;;;26.01;63.21;101557.84;5071559;28;20081;-59
2023/09/08 10:17:51;;;;;;;9.00;6.20;;;;;;;26.16;64.18;101557.06;5098077;28;20144;-58
2023/09/08 10:20:18;;;;;;;10.60;6.63;;;;;;;26.15;61.75;101553.47;5065545;28;20506;-59
2023/09/08 10:22:45;;;;;;;8.55;7.20;;;;;;;26.14;62.68;101550.94;5066498;28;20016;-59
2023/09/08 10:25:13;;;;;;;9.18;6.88;;;;;;;26.21;61.82;101560.94;5071175;28;20024;-58
2023/09/08 10:27:39;;;;;;;10.60;6.20;;;;;;;26.27;62.94;101562.09;5071475;28;20040;-59
2023/09/08 10:30:06;;;;;;;12.05;6.35;;;;;;;26.55;64.48;101558.81;5071381;28;20372;-59
2023/09/08 10:32:36;;;;;;;24.45;7.18;;;;;;;26.56;62.81;101557.75;5070620;28;20035;-67
2023/09/08 10:35:06;;;;;;;11.10;6.60;;;;;;;26.47;62.40;101552.38;5069914;28;20090;-62
2023/09/08 10:37:32;;;;;;;10.27;6.32;;;;;;;26.64;64.06;101554.97;5070192;28;20575;-59
2023/09/08 10:40:20;;;;;;;10.68;6.60;;;;;;;26.65;62.16;101554.78;5096499;28;20032;-58
2023/09/08 10:42:46;;;;;;;;;;;;;;;26.68;63.53;101553.56;5081748;28;20397;-58
2023/09/08 10:45:20;;;;;;;9.90;7.15;;;;;;;26.72;61.81;101549.44;5068309;28;19916;-58
2023/09/08 10:47:46;;;;;;;9.52;6.70;;;;;;;26.86;62.16;101534.13;5067261;28;20361;-58
2023/09/08 10:50:18;;;;;;;10.15;6.03;;;;;;;26.93;63.09;101544.06;5058695;28;20040;-58
2023/09/08 10:52:44;;;;;;;7.10;6.22;;;;;;;27.02;60.03;101538.53;5058437;28;20472;-58
2023/09/08 10:55:15;;;;;;;12.15;6.68;;;;;;;27.09;60.79;101539.47;5054164;28;20032;-58
2023/09/08 10:57:45;;;;;;;7.05;6.07;;;;;;;27.21;59.78;101539.88;5062801;28;20494;-58
2023/09/08 11:00:17;;;;;;;12.45;6.53;;;;;;;27.18;58.75;101538.38;5068827;28;20025;-59
2023/09/08 11:02:49;;;;;;;8.38;6.13;;;;;;;27.37;62.92;101536.94;5068886;28;20020;-58
2023/09/08 11:05:15;;;;;;;9.85;6.50;;;;;;;27.40;58.96;101539.28;5066360;28;20437;-59
2023/09/08 11:07:49;;;;;;;9.38;6.95;;;;;;;27.43;59.28;101535.34;5059877;28;20044;-58
2023/09/08 11:10:15;;;;;;;11.07;6.50;;;;;;;27.44;58.13;101537.00;5070918;28;20390;-58
2023/09/08 11:12:40;;;;;;;14.02;6.85;;;;;;;27.71;59.89;101538.16;5070219;28;20024;-59
2023/09/08 11:15:08;;;;;;;8.32;6.03;;;;;;;27.74;59.61;101538.66;5103219;28;20481;-59